Time,TemperatureF,DewpointF,PressureIn,WindDirection,WindDirectionDegrees,WindSpeedMPH,WindSpeedGustMPH,Humidity,HourlyPrecipIn,Conditions,Clouds,dailyrainin,SoftwareType,DateUTC
2013-03-27 00:00:00,29.0,23.0,-100.00,NNE,13,3.0,5.0,76,-99.99,,,-99.99,,2013-03-27 06:00:00,
2013-03-27 00:32:00,29.0,23.0,-100.00,NNE,13,3.0,5.0,76,-99.99,,,-99.99,,2013-03-27 06:32:00,
2013-03-27 00:42:00,29.0,23.0,-100.00,NNE,13,3.0,5.0,76,-99.99,,,-99.99,,2013-03-27 06:42:00,
2013-03-27 00:53:00,29.0,23.0,-100.00,NNE,13,3.0,5.0,76,-99.99,,,-99.99,,2013-03-27 06:53:00,
2013-03-27 01:00:00,30.0,23.0,-100.00,East,83,1.0,3.0,75,-99.99,,,-99.99,,2013-03-27 07:00:00,
2013-03-27 01:32:00,30.0,23.0,-100.00,East,83,1.0,3.0,75,-99.99,,,-99.99,,2013-03-27 07:32:00,
2013-03-27 01:43:00,30.0,23.0,-100.00,East,83,1.0,3.0,75,-99.99,,,-99.99,,2013-03-27 07:43:00,
2013-03-27 01:53:00,30.0,23.0,-100.00,East,83,1.0,3.0,75,-99.99,,,-99.99,,2013-03-27 07:53:00,
2013-03-27 02:00:00,30.0,23.0,-100.00,ESE,121,2.0,4.0,77,-99.99,,,-99.99,,2013-03-27 08:00:00,
2013-03-27 02:32:00,30.0,23.0,-100.00,ESE,121,2.0,4.0,77,-99.99,,,-99.99,,2013-03-27 08:32:00,
2013-03-27 02:43:00,30.0,23.0,-100.00,ESE,121,2.0,4.0,77,-99.99,,,-99.99,,2013-03-27 08:43:00,
2013-03-27 02:52:00,30.0,23.0,-100.00,ESE,121,2.0,4.0,77,-99.99,,,-99.99,,2013-03-27 08:52:00,
2013-03-27 03:00:00,29.0,22.0,-100.00,East,94,4.0,5.0,74,-99.99,,,-99.99,,2013-03-27 09:00:00,
2013-03-27 03:33:00,29.0,22.0,-100.00,East,94,4.0,5.0,74,-99.99,,,-99.99,,2013-03-27 09:33:00,
2013-03-27 03:42:00,29.0,22.0,-100.00,East,94,4.0,5.0,74,-99.99,,,-99.99,,2013-03-27 09:42:00,
2013-03-27 03:52:00,29.0,22.0,-100.00,East,94,4.0,5.0,74,-99.99,,,-99.99,,2013-03-27 09:52:00,
2013-03-27 04:00:00,29.0,24.0,-100.00,SE,134,3.0,4.0,79,-99.99,,,-99.99,,2013-03-27 10:00:00,
2013-03-27 04:32:00,29.0,24.0,-100.00,SE,134,3.0,4.0,79,-99.99,,,-99.99,,2013-03-27 10:32:00,
2013-03-27 04:42:00,29.0,24.0,-100.00,SE,134,3.0,4.0,79,-99.99,,,-99.99,,2013-03-27 10:42:00,
2013-03-27 04:52:00,29.0,24.0,-100.00,SE,134,3.0,4.0,79,-99.99,,,-99.99,,2013-03-27 10:52:00,
2013-03-27 05:00:00,29.0,24.0,-100.00,SSE,161,3.0,5.0,81,-99.99,,,-99.99,,2013-03-27 11:00:00,
2013-03-27 05:32:00,29.0,24.0,-100.00,SSE,161,3.0,5.0,81,-99.99,,,-99.99,,2013-03-27 11:32:00,
2013-03-27 05:42:00,29.0,24.0,-100.00,SSE,161,3.0,5.0,81,-99.99,,,-99.99,,2013-03-27 11:42:00,
2013-03-27 05:52:00,29.0,24.0,-100.00,SSE,161,3.0,5.0,81,-99.99,,,-99.99,,2013-03-27 11:52:00,
2013-03-27 06:00:00,28.0,25.0,-100.00,South,177,4.0,6.0,89,-99.99,,,-99.99,,2013-03-27 12:00:00,
2013-03-27 06:32:00,28.0,25.0,-100.00,South,177,4.0,6.0,89,-99.99,,,-99.99,,2013-03-27 12:32:00,
2013-03-27 06:43:00,28.0,25.0,-100.00,South,177,4.0,6.0,89,-99.99,,,-99.99,,2013-03-27 12:43:00,
2013-03-27 06:52:00,28.0,25.0,-100.00,South,177,4.0,6.0,89,-99.99,,,-99.99,,2013-03-27 12:52:00,
2013-03-27 07:00:00,27.0,25.0,-100.00,SSE,162,4.0,6.0,91,-99.99,,,-99.99,,2013-03-27 13:00:00,
2013-03-27 07:33:00,27.0,25.0,-100.00,SSE,162,4.0,6.0,91,-99.99,,,-99.99,,2013-03-27 13:33:00,
2013-03-27 07:42:00,27.0,25.0,-100.00,SSE,162,4.0,6.0,91,-99.99,,,-99.99,,2013-03-27 13:42:00,
2013-03-27 07:53:00,27.0,25.0,-100.00,SSE,162,4.0,6.0,91,-99.99,,,-99.99,,2013-03-27 13:53:00,
2013-03-27 08:00:00,27.0,25.0,-100.00,SE,125,6.0,8.0,94,-99.99,,,-99.99,,2013-03-27 14:00:00,
2013-03-27 08:32:00,27.0,25.0,-100.00,SE,125,6.0,8.0,94,-99.99,,,-99.99,,2013-03-27 14:32:00,
2013-03-27 08:42:00,27.0,25.0,-100.00,SE,125,6.0,8.0,94,-99.99,,,-99.99,,2013-03-27 14:42:00,
2013-03-27 08:52:00,27.0,25.0,-100.00,SE,125,6.0,8.0,94,-99.99,,,-99.99,,2013-03-27 14:52:00,
2013-03-27 09:00:00,27.0,25.0,-100.00,SSE,167,5.0,8.0,93,-99.99,,,-99.99,,2013-03-27 15:00:00,
2013-03-27 09:33:00,27.0,25.0,-100.00,SSE,167,5.0,8.0,93,-99.99,,,-99.99,,2013-03-27 15:33:00,
2013-03-27 09:43:00,27.0,25.0,-100.00,SSE,167,5.0,8.0,93,-99.99,,,-99.99,,2013-03-27 15:43:00,
2013-03-27 09:52:00,27.0,25.0,-100.00,SSE,167,5.0,8.0,93,-99.99,,,-99.99,,2013-03-27 15:52:00,
2013-03-27 10:00:00,27.0,25.0,-100.00,SSE,149,5.0,8.0,92,-99.99,,,-99.99,,2013-03-27 16:00:00,
2013-03-27 10:33:00,27.0,25.0,-100.00,SSE,149,5.0,8.0,92,-99.99,,,-99.99,,2013-03-27 16:33:00,
2013-03-27 10:42:00,27.0,25.0,-100.00,SSE,149,5.0,8.0,92,-99.99,,,-99.99,,2013-03-27 16:42:00,
2013-03-27 10:52:00,27.0,25.0,-100.00,SSE,149,5.0,8.0,92,-99.99,,,-99.99,,2013-03-27 16:52:00,
2013-03-27 11:00:00,28.0,26.0,-100.00,SE,141,5.0,10.0,91,-99.99,,,-99.99,,2013-03-27 17:00:00,
2013-03-27 11:32:00,28.0,26.0,-100.00,SE,141,5.0,10.0,91,-99.99,,,-99.99,,2013-03-27 17:32:00,
2013-03-27 11:44:00,28.0,26.0,-100.00,SE,141,5.0,10.0,91,-99.99,,,-99.99,,2013-03-27 17:44:00,
2013-03-27 11:52:00,28.0,26.0,-100.00,SE,141,5.0,10.0,91,-99.99,,,-99.99,,2013-03-27 17:52:00,
2013-03-27 12:00:00,29.0,26.0,-100.00,SSE,158,6.0,9.0,88,-99.99,,,-99.99,,2013-03-27 18:00:00,
2013-03-27 12:33:00,29.0,26.0,-100.00,SSE,158,6.0,9.0,88,-99.99,,,-99.99,,2013-03-27 18:33:00,
2013-03-27 12:42:00,29.0,26.0,-100.00,SSE,158,6.0,9.0,88,-99.99,,,-99.99,,2013-03-27 18:42:00,
2013-03-27 12:53:00,29.0,26.0,-100.00,SSE,158,6.0,9.0,88,-99.99,,,-99.99,,2013-03-27 18:53:00,
2013-03-27 13:00:00,29.0,27.0,-100.00,SSE,154,5.0,10.0,89,-99.99,,,-99.99,,2013-03-27 19:00:00,
2013-03-27 13:32:00,29.0,27.0,-100.00,SSE,154,5.0,10.0,89,-99.99,,,-99.99,,2013-03-27 19:32:00,
2013-03-27 13:42:00,29.0,27.0,-100.00,SSE,154,5.0,10.0,89,-99.99,,,-99.99,,2013-03-27 19:42:00,
2013-03-27 13:52:00,29.0,27.0,-100.00,SSE,154,5.0,10.0,89,-99.99,,,-99.99,,2013-03-27 19:52:00,
2013-03-27 14:00:00,34.0,26.0,-100.00,SSE,166,4.0,8.0,71,-99.99,,,-99.99,,2013-03-27 20:00:00,
2013-03-27 14:32:00,34.0,26.0,-100.00,SSE,166,4.0,8.0,71,-99.99,,,-99.99,,2013-03-27 20:32:00,
2013-03-27 14:43:00,34.0,26.0,-100.00,SSE,166,4.0,8.0,71,-99.99,,,-99.99,,2013-03-27 20:43:00,
2013-03-27 14:52:00,34.0,26.0,-100.00,SSE,166,4.0,8.0,71,-99.99,,,-99.99,,2013-03-27 20:52:00,
2013-03-27 15:00:00,37.0,27.0,-100.00,SSW,200,7.0,10.0,66,-99.99,,,-99.99,,2013-03-27 21:00:00,
2013-03-27 15:32:00,37.0,27.0,-100.00,SSW,200,7.0,10.0,66,-99.99,,,-99.99,,2013-03-27 21:32:00,
2013-03-27 15:43:00,37.0,27.0,-100.00,SSW,200,7.0,10.0,66,-99.99,,,-99.99,,2013-03-27 21:43:00,
2013-03-27 15:52:00,37.0,27.0,-100.00,SSW,200,7.0,10.0,66,-99.99,,,-99.99,,2013-03-27 21:52:00,
2013-03-27 16:00:00,37.0,27.0,-100.00,SSW,210,6.0,11.0,65,-99.99,,,-99.99,,2013-03-27 22:00:00,
2013-03-27 16:33:00,37.0,27.0,-100.00,SSW,210,6.0,11.0,65,-99.99,,,-99.99,,2013-03-27 22:33:00,
2013-03-27 16:42:00,37.0,27.0,-100.00,SSW,210,6.0,11.0,65,-99.99,,,-99.99,,2013-03-27 22:42:00,
2013-03-27 16:52:00,37.0,27.0,-100.00,SSW,210,6.0,11.0,65,-99.99,,,-99.99,,2013-03-27 22:52:00,
2013-03-27 17:00:00,39.0,26.0,-100.00,SSW,200,6.0,9.0,60,-99.99,,,-99.99,,2013-03-27 23:00:00,
2013-03-27 17:32:00,39.0,26.0,-100.00,SSW,200,6.0,9.0,60,-99.99,,,-99.99,,2013-03-27 23:32:00,
2013-03-27 17:42:00,39.0,26.0,-100.00,SSW,200,6.0,9.0,60,-99.99,,,-99.99,,2013-03-27 23:42:00,
2013-03-27 17:52:00,39.0,26.0,-100.00,SSW,200,6.0,9.0,60,-99.99,,,-99.99,,2013-03-27 23:52:00,
2013-03-27 18:33:00,39.0,30.0,-100.00,SSE,166,7.0,12.0,69,-99.99,,,-99.99,,2013-03-28 00:33:00,
2013-03-27 18:43:00,39.0,30.0,-100.00,SSE,166,7.0,12.0,69,-99.99,,,-99.99,,2013-03-28 00:43:00,
2013-03-27 18:52:00,39.0,30.0,-100.00,SSE,166,7.0,12.0,69,-99.99,,,-99.99,,2013-03-28 00:52:00,
2013-03-27 19:00:00,35.0,27.0,-100.00,SE,130,7.0,10.0,73,-99.99,,,-99.99,,2013-03-28 01:00:00,
2013-03-27 19:32:00,35.0,27.0,-100.00,SE,130,7.0,10.0,73,-99.99,,,-99.99,,2013-03-28 01:32:00,
2013-03-27 19:42:00,35.0,27.0,-100.00,SE,130,7.0,10.0,73,-99.99,,,-99.99,,2013-03-28 01:42:00,
2013-03-27 19:52:00,35.0,27.0,-100.00,SE,130,7.0,10.0,73,-99.99,,,-99.99,,2013-03-28 01:52:00,
2013-03-27 20:00:00,33.0,26.0,-100.00,SE,134,5.0,9.0,73,-99.99,,,-99.99,,2013-03-28 02:00:00,
2013-03-27 20:33:00,33.0,26.0,-100.00,SE,134,5.0,9.0,73,-99.99,,,-99.99,,2013-03-28 02:33:00,
2013-03-27 20:42:00,33.0,26.0,-100.00,SE,134,5.0,9.0,73,-99.99,,,-99.99,,2013-03-28 02:42:00,
2013-03-27 20:52:00,33.0,26.0,-100.00,SE,134,5.0,9.0,73,-99.99,,,-99.99,,2013-03-28 02:52:00,
2013-03-27 21:00:00,32.0,26.0,-100.00,South,181,5.0,7.0,76,-99.99,,,-99.99,,2013-03-28 03:00:00,
2013-03-27 21:33:00,32.0,26.0,-100.00,South,181,5.0,7.0,76,-99.99,,,-99.99,,2013-03-28 03:33:00,
2013-03-27 21:43:00,32.0,26.0,-100.00,South,181,5.0,7.0,76,-99.99,,,-99.99,,2013-03-28 03:43:00,
2013-03-27 21:53:00,32.0,26.0,-100.00,South,181,5.0,7.0,76,-99.99,,,-99.99,,2013-03-28 03:53:00,
2013-03-27 22:00:00,32.0,26.0,-100.00,SSE,154,4.0,8.0,78,-99.99,,,-99.99,,2013-03-28 04:00:00,
2013-03-27 22:32:00,32.0,26.0,-100.00,SSE,154,4.0,8.0,78,-99.99,,,-99.99,,2013-03-28 04:32:00,
2013-03-27 22:42:00,32.0,26.0,-100.00,SSE,154,4.0,8.0,78,-99.99,,,-99.99,,2013-03-28 04:42:00,
2013-03-27 22:52:00,32.0,26.0,-100.00,SSE,154,4.0,8.0,78,-99.99,,,-99.99,,2013-03-28 04:52:00,
2013-03-27 23:00:00,32.0,27.0,-100.00,South,169,4.0,7.0,78,-99.99,,,-99.99,,2013-03-28 05:00:00,
2013-03-27 23:32:00,32.0,27.0,-100.00,South,169,4.0,7.0,78,-99.99,,,-99.99,,2013-03-28 05:32:00,
2013-03-27 23:43:00,32.0,27.0,-100.00,South,169,4.0,7.0,78,-99.99,,,-99.99,,2013-03-28 05:43:00,
2013-03-27 23:52:00,32.0,27.0,-100.00,South,169,4.0,7.0,78,-99.99,,,-99.99,,2013-03-28 05:52:00,